sensor_id;sensor_type;location;lat;lon;timestamp;P1;durP1;ratioP1;P2;durP2;ratioP2
11921;SDS011;6021;51.182;3.160;2023-04-15T00:01:38;4.90;;;4.40;;
11921;SDS011;6021;51.182;3.160;2023-04-15T00:04:07;4.43;;;4.13;;
11921;SDS011;6021;51.182;3.160;2023-04-15T00:06:36;4.77;;;4.37;;
11921;SDS011;6021;51.182;3.160;2023-04-15T00:09:05;4.73;;;4.33;;
11921;SDS011;6021;51.182;3.160;2023-04-15T00:11:34;5.63;;;4.80;;
11921;SDS011;6021;51.182;3.160;2023-04-15T00:14:02;5.17;;;4.70;;
11921;SDS011;6021;51.182;3.160;2023-04-15T00:16:31;4.67;;;4.30;;
11921;SDS011;6021;51.182;3.160;2023-04-15T00:19:00;5.33;;;4.93;;
11921;SDS011;6021;51.182;3.160;2023-04-15T00:21:28;5.10;;;4.70;;
11921;SDS011;6021;51.182;3.160;2023-04-15T00:23:57;5.20;;;4.80;;
11921;SDS011;6021;51.182;3.160;2023-04-15T00:26:27;5.23;;;4.83;;
11921;SDS011;6021;51.182;3.160;2023-04-15T00:28:55;5.00;;;4.50;;
11921;SDS011;6021;51.182;3.160;2023-04-15T00:31:23;5.67;;;5.17;;
11921;SDS011;6021;51.182;3.160;2023-04-15T00:33:52;5.70;;;5.10;;
11921;SDS011;6021;51.182;3.160;2023-04-15T00:36:21;5.67;;;5.27;;
11921;SDS011;6021;51.182;3.160;2023-04-15T00:38:50;5.07;;;4.67;;
11921;SDS011;6021;51.182;3.160;2023-04-15T00:41:18;6.23;;;5.63;;
11921;SDS011;6021;51.182;3.160;2023-04-15T00:43:48;5.30;;;4.90;;
11921;SDS011;6021;51.182;3.160;2023-04-15T00:46:17;5.10;;;4.70;;
11921;SDS011;6021;51.182;3.160;2023-04-15T00:48:49;6.73;;;6.13;;
11921;SDS011;6021;51.182;3.160;2023-04-15T00:51:18;6.03;;;5.53;;
11921;SDS011;6021;51.182;3.160;2023-04-15T00:53:46;5.57;;;5.17;;
11921;SDS011;6021;51.182;3.160;2023-04-15T00:56:15;4.70;;;4.30;;
11921;SDS011;6021;51.182;3.160;2023-04-15T00:58:43;5.83;;;5.33;;
11921;SDS011;6021;51.182;3.160;2023-04-15T01:01:12;6.57;;;5.97;;
11921;SDS011;6021;51.182;3.160;2023-04-15T01:03:40;6.60;;;6.10;;
11921;SDS011;6021;51.182;3.160;2023-04-15T01:06:09;6.70;;;6.20;;
11921;SDS011;6021;51.182;3.160;2023-04-15T01:08:37;6.00;;;5.60;;
11921;SDS011;6021;51.182;3.160;2023-04-15T01:11:06;5.33;;;4.83;;
11921;SDS011;6021;51.182;3.160;2023-04-15T01:13:34;6.10;;;5.60;;
11921;SDS011;6021;51.182;3.160;2023-04-15T01:16:03;6.77;;;6.17;;
11921;SDS011;6021;51.182;3.160;2023-04-15T01:18:33;5.80;;;5.40;;
11921;SDS011;6021;51.182;3.160;2023-04-15T01:21:04;6.93;;;6.40;;
11921;SDS011;6021;51.182;3.160;2023-04-15T01:23:35;6.33;;;5.83;;
11921;SDS011;6021;51.182;3.160;2023-04-15T01:26:04;5.10;;;4.70;;
11921;SDS011;6021;51.182;3.160;2023-04-15T01:28:47;6.80;;;6.20;;
11921;SDS011;6021;51.182;3.160;2023-04-15T01:31:16;6.07;;;5.57;;
11921;SDS011;6021;51.182;3.160;2023-04-15T01:33:45;5.47;;;5.07;;
11921;SDS011;6021;51.182;3.160;2023-04-15T01:36:14;5.30;;;4.90;;
11921;SDS011;6021;51.182;3.160;2023-04-15T01:38:42;5.40;;;4.90;;
11921;SDS011;6021;51.182;3.160;2023-04-15T01:41:14;5.90;;;5.40;;
11921;SDS011;6021;51.182;3.160;2023-04-15T01:43:42;5.90;;;5.40;;
11921;SDS011;6021;51.182;3.160;2023-04-15T01:46:11;4.77;;;4.47;;
11921;SDS011;6021;51.182;3.160;2023-04-15T01:48:39;5.70;;;5.20;;
11921;SDS011;6021;51.182;3.160;2023-04-15T01:51:08;5.20;;;4.80;;
11921;SDS011;6021;51.182;3.160;2023-04-15T01:53:36;6.03;;;5.53;;
11921;SDS011;6021;51.182;3.160;2023-04-15T01:56:05;5.43;;;5.00;;
11921;SDS011;6021;51.182;3.160;2023-04-15T01:58:34;6.30;;;5.80;;
11921;SDS011;6021;51.182;3.160;2023-04-15T02:01:07;6.13;;;5.60;;
11921;SDS011;6021;51.182;3.160;2023-04-15T02:03:43;6.40;;;5.80;;
11921;SDS011;6021;51.182;3.160;2023-04-15T02:06:14;6.77;;;6.23;;
11921;SDS011;6021;51.182;3.160;2023-04-15T02:08:42;5.93;;;5.43;;
11921;SDS011;6021;51.182;3.160;2023-04-15T02:11:11;6.37;;;5.87;;
11921;SDS011;6021;51.182;3.160;2023-04-15T02:13:39;7.00;;;6.40;;
11921;SDS011;6021;51.182;3.160;2023-04-15T02:16:18;7.00;;;6.40;;
11921;SDS011;6021;51.182;3.160;2023-04-15T02:18:47;6.90;;;6.40;;
11921;SDS011;6021;51.182;3.160;2023-04-15T02:21:17;6.67;;;6.07;;
11921;SDS011;6021;51.182;3.160;2023-04-15T02:23:45;7.30;;;6.60;;
11921;SDS011;6021;51.182;3.160;2023-04-15T02:26:14;7.73;;;7.03;;
11921;SDS011;6021;51.182;3.160;2023-04-15T02:28:42;7.17;;;6.57;;
11921;SDS011;6021;51.182;3.160;2023-04-15T02:31:11;6.77;;;6.27;;
11921;SDS011;6021;51.182;3.160;2023-04-15T02:33:39;7.67;;;6.97;;
11921;SDS011;6021;51.182;3.160;2023-04-15T02:36:07;7.07;;;6.30;;
11921;SDS011;6021;51.182;3.160;2023-04-15T02:38:37;6.23;;;5.73;;
11921;SDS011;6021;51.182;3.160;2023-04-15T02:41:08;7.33;;;6.63;;
11921;SDS011;6021;51.182;3.160;2023-04-15T02:43:37;7.03;;;6.43;;
11921;SDS011;6021;51.182;3.160;2023-04-15T02:46:05;7.50;;;6.57;;
11921;SDS011;6021;51.182;3.160;2023-04-15T02:48:35;6.97;;;6.37;;
11921;SDS011;6021;51.182;3.160;2023-04-15T02:51:10;4.80;;;4.40;;
11921;SDS011;6021;51.182;3.160;2023-04-15T02:53:41;5.67;;;5.17;;
11921;SDS011;6021;51.182;3.160;2023-04-15T02:56:12;6.07;;;5.57;;
11921;SDS011;6021;51.182;3.160;2023-04-15T02:58:42;5.90;;;5.40;;
11921;SDS011;6021;51.182;3.160;2023-04-15T03:01:11;6.47;;;5.87;;
11921;SDS011;6021;51.182;3.160;2023-04-15T03:03:40;6.17;;;5.67;;
11921;SDS011;6021;51.182;3.160;2023-04-15T03:06:08;5.90;;;5.40;;
11921;SDS011;6021;51.182;3.160;2023-04-15T03:08:37;6.80;;;6.00;;
11921;SDS011;6021;51.182;3.160;2023-04-15T03:11:05;5.30;;;4.90;;
11921;SDS011;6021;51.182;3.160;2023-04-15T03:13:33;6.30;;;5.80;;
11921;SDS011;6021;51.182;3.160;2023-04-15T03:16:02;6.40;;;5.90;;
11921;SDS011;6021;51.182;3.160;2023-04-15T03:18:39;6.73;;;6.03;;
11921;SDS011;6021;51.182;3.160;2023-04-15T03:21:11;6.40;;;5.80;;
11921;SDS011;6021;51.182;3.160;2023-04-15T03:23:39;7.07;;;6.30;;
11921;SDS011;6021;51.182;3.160;2023-04-15T03:26:13;6.60;;;6.00;;
11921;SDS011;6021;51.182;3.160;2023-04-15T03:28:39;5.50;;;5.00;;
11921;SDS011;6021;51.182;3.160;2023-04-15T03:31:07;7.27;;;6.57;;
11921;SDS011;6021;51.182;3.160;2023-04-15T03:33:39;7.23;;;6.70;;
11921;SDS011;6021;51.182;3.160;2023-04-15T03:38:46;7.00;;;6.40;;
11921;SDS011;6021;51.182;3.160;2023-04-15T03:41:11;8.47;;;6.07;;
11921;SDS011;6021;51.182;3.160;2023-04-15T03:43:40;9.17;;;7.87;;
11921;SDS011;6021;51.182;3.160;2023-04-15T03:46:08;9.87;;;8.97;;
11921;SDS011;6021;51.182;3.160;2023-04-15T03:48:38;11.53;;;10.33;;
11921;SDS011;6021;51.182;3.160;2023-04-15T03:51:09;12.33;;;10.63;;
11921;SDS011;6021;51.182;3.160;2023-04-15T03:53:43;8.00;;;7.20;;
11921;SDS011;6021;51.182;3.160;2023-04-15T03:56:12;11.83;;;10.70;;
11921;SDS011;6021;51.182;3.160;2023-04-15T03:58:41;10.90;;;9.90;;
11921;SDS011;6021;51.182;3.160;2023-04-15T04:01:13;11.73;;;10.63;;
11921;SDS011;6021;51.182;3.160;2023-04-15T04:03:42;13.03;;;11.77;;
11921;SDS011;6021;51.182;3.160;2023-04-15T04:06:13;14.00;;;12.50;;
11921;SDS011;6021;51.182;3.160;2023-04-15T04:08:44;14.03;;;12.63;;
11921;SDS011;6021;51.182;3.160;2023-04-15T04:11:23;14.67;;;13.13;;
11921;SDS011;6021;51.182;3.160;2023-04-15T04:13:54;18.70;;;15.10;;
11921;SDS011;6021;51.182;3.160;2023-04-15T04:16:23;16.23;;;14.50;;
11921;SDS011;6021;51.182;3.160;2023-04-15T04:18:51;12.40;;;10.53;;
11921;SDS011;6021;51.182;3.160;2023-04-15T04:21:20;12.17;;;9.93;;
11921;SDS011;6021;51.182;3.160;2023-04-15T04:23:50;14.20;;;12.57;;
11921;SDS011;6021;51.182;3.160;2023-04-15T04:26:18;14.03;;;12.47;;
11921;SDS011;6021;51.182;3.160;2023-04-15T04:28:47;15.30;;;13.07;;
11921;SDS011;6021;51.182;3.160;2023-04-15T04:31:15;13.73;;;12.33;;
11921;SDS011;6021;51.182;3.160;2023-04-15T04:33:48;14.37;;;12.87;;
11921;SDS011;6021;51.182;3.160;2023-04-15T04:36:16;15.40;;;12.67;;
11921;SDS011;6021;51.182;3.160;2023-04-15T04:38:45;13.57;;;12.00;;
11921;SDS011;6021;51.182;3.160;2023-04-15T04:41:13;14.57;;;12.93;;
11921;SDS011;6021;51.182;3.160;2023-04-15T04:43:41;15.10;;;12.87;;
11921;SDS011;6021;51.182;3.160;2023-04-15T04:46:10;17.03;;;14.27;;
11921;SDS011;6021;51.182;3.160;2023-04-15T04:48:39;17.17;;;15.43;;
11921;SDS011;6021;51.182;3.160;2023-04-15T04:51:07;18.13;;;16.17;;
11921;SDS011;6021;51.182;3.160;2023-04-15T04:53:36;20.97;;;17.77;;
11921;SDS011;6021;51.182;3.160;2023-04-15T04:56:04;30.53;;;18.80;;
11921;SDS011;6021;51.182;3.160;2023-04-15T04:58:33;27.17;;;19.93;;
11921;SDS011;6021;51.182;3.160;2023-04-15T05:01:08;23.00;;;19.03;;
11921;SDS011;6021;51.182;3.160;2023-04-15T05:03:33;20.90;;;17.60;;
11921;SDS011;6021;51.182;3.160;2023-04-15T05:06:01;23.53;;;18.17;;
11921;SDS011;6021;51.182;3.160;2023-04-15T05:08:32;24.60;;;17.70;;
11921;SDS011;6021;51.182;3.160;2023-04-15T05:11:00;20.00;;;16.37;;
11921;SDS011;6021;51.182;3.160;2023-04-15T05:13:29;25.27;;;18.63;;
11921;SDS011;6021;51.182;3.160;2023-04-15T05:15:57;21.33;;;16.27;;
11921;SDS011;6021;51.182;3.160;2023-04-15T05:18:26;18.30;;;14.23;;
11921;SDS011;6021;51.182;3.160;2023-04-15T05:20:54;17.57;;;15.10;;
11921;SDS011;6021;51.182;3.160;2023-04-15T05:23:23;15.07;;;13.23;;
11921;SDS011;6021;51.182;3.160;2023-04-15T05:25:51;14.97;;;13.37;;
11921;SDS011;6021;51.182;3.160;2023-04-15T05:28:20;15.73;;;14.17;;
11921;SDS011;6021;51.182;3.160;2023-04-15T05:30:48;17.97;;;16.07;;
11921;SDS011;6021;51.182;3.160;2023-04-15T05:33:18;20.77;;;16.03;;
11921;SDS011;6021;51.182;3.160;2023-04-15T05:35:46;22.27;;;15.73;;
11921;SDS011;6021;51.182;3.160;2023-04-15T05:38:14;12.70;;;11.40;;
11921;SDS011;6021;51.182;3.160;2023-04-15T05:40:43;19.07;;;16.70;;
11921;SDS011;6021;51.182;3.160;2023-04-15T05:43:11;25.37;;;20.07;;
11921;SDS011;6021;51.182;3.160;2023-04-15T05:45:39;16.63;;;13.10;;
11921;SDS011;6021;51.182;3.160;2023-04-15T05:48:08;20.87;;;17.80;;
11921;SDS011;6021;51.182;3.160;2023-04-15T05:50:36;14.87;;;12.03;;
11921;SDS011;6021;51.182;3.160;2023-04-15T05:53:09;25.43;;;19.67;;
11921;SDS011;6021;51.182;3.160;2023-04-15T05:55:38;19.77;;;17.50;;
11921;SDS011;6021;51.182;3.160;2023-04-15T05:58:06;24.37;;;20.07;;
11921;SDS011;6021;51.182;3.160;2023-04-15T06:00:35;19.13;;;14.07;;
11921;SDS011;6021;51.182;3.160;2023-04-15T06:03:04;19.40;;;17.23;;
11921;SDS011;6021;51.182;3.160;2023-04-15T06:05:35;21.57;;;18.20;;
11921;SDS011;6021;51.182;3.160;2023-04-15T06:08:03;18.97;;;17.07;;
11921;SDS011;6021;51.182;3.160;2023-04-15T06:10:31;19.93;;;17.43;;
11921;SDS011;6021;51.182;3.160;2023-04-15T06:13:03;17.70;;;15.80;;
11921;SDS011;6021;51.182;3.160;2023-04-15T06:15:32;16.23;;;14.67;;
11921;SDS011;6021;51.182;3.160;2023-04-15T06:18:01;18.80;;;15.13;;
11921;SDS011;6021;51.182;3.160;2023-04-15T06:20:29;17.17;;;14.17;;
11921;SDS011;6021;51.182;3.160;2023-04-15T06:22:58;16.83;;;15.03;;
11921;SDS011;6021;51.182;3.160;2023-04-15T06:25:28;16.37;;;13.00;;
11921;SDS011;6021;51.182;3.160;2023-04-15T06:27:56;20.30;;;16.50;;
11921;SDS011;6021;51.182;3.160;2023-04-15T06:30:25;15.73;;;14.13;;
11921;SDS011;6021;51.182;3.160;2023-04-15T06:32:54;18.63;;;15.47;;
11921;SDS011;6021;51.182;3.160;2023-04-15T06:35:22;22.50;;;16.43;;
11921;SDS011;6021;51.182;3.160;2023-04-15T06:37:50;16.53;;;14.77;;
11921;SDS011;6021;51.182;3.160;2023-04-15T06:40:21;15.60;;;13.93;;
11921;SDS011;6021;51.182;3.160;2023-04-15T06:42:50;17.53;;;15.07;;
11921;SDS011;6021;51.182;3.160;2023-04-15T06:45:19;16.00;;;14.00;;
11921;SDS011;6021;51.182;3.160;2023-04-15T06:47:47;16.07;;;12.77;;
11921;SDS011;6021;51.182;3.160;2023-04-15T06:50:15;13.50;;;11.97;;
11921;SDS011;6021;51.182;3.160;2023-04-15T06:52:44;14.07;;;11.90;;
11921;SDS011;6021;51.182;3.160;2023-04-15T06:55:13;16.30;;;14.60;;
11921;SDS011;6021;51.182;3.160;2023-04-15T06:57:41;13.93;;;12.40;;
11921;SDS011;6021;51.182;3.160;2023-04-15T07:00:10;17.77;;;13.63;;
11921;SDS011;6021;51.182;3.160;2023-04-15T07:02:39;16.17;;;14.00;;
11921;SDS011;6021;51.182;3.160;2023-04-15T07:05:07;15.20;;;13.63;;
11921;SDS011;6021;51.182;3.160;2023-04-15T07:07:37;15.80;;;11.23;;
11921;SDS011;6021;51.182;3.160;2023-04-15T07:10:10;16.70;;;10.97;;
11921;SDS011;6021;51.182;3.160;2023-04-15T07:12:40;12.40;;;11.10;;
11921;SDS011;6021;51.182;3.160;2023-04-15T07:15:09;12.73;;;11.27;;
11921;SDS011;6021;51.182;3.160;2023-04-15T07:17:38;16.40;;;12.30;;
11921;SDS011;6021;51.182;3.160;2023-04-15T07:20:08;14.60;;;11.37;;
11921;SDS011;6021;51.182;3.160;2023-04-15T07:22:38;10.97;;;9.87;;
11921;SDS011;6021;51.182;3.160;2023-04-15T07:25:07;10.13;;;9.07;;
11921;SDS011;6021;51.182;3.160;2023-04-15T07:27:36;11.70;;;9.87;;
11921;SDS011;6021;51.182;3.160;2023-04-15T07:30:05;11.90;;;10.70;;
11921;SDS011;6021;51.182;3.160;2023-04-15T07:32:34;12.20;;;8.73;;
11921;SDS011;6021;51.182;3.160;2023-04-15T07:35:03;9.80;;;8.80;;
11921;SDS011;6021;51.182;3.160;2023-04-15T07:37:32;7.90;;;7.10;;
11921;SDS011;6021;51.182;3.160;2023-04-15T07:40:00;7.57;;;5.97;;
11921;SDS011;6021;51.182;3.160;2023-04-15T07:42:30;5.60;;;5.00;;
11921;SDS011;6021;51.182;3.160;2023-04-15T07:44:59;7.33;;;4.60;;
11921;SDS011;6021;51.182;3.160;2023-04-15T07:47:27;4.33;;;3.93;;
11921;SDS011;6021;51.182;3.160;2023-04-15T07:49:55;3.67;;;3.13;;
11921;SDS011;6021;51.182;3.160;2023-04-15T07:52:24;6.17;;;3.57;;
11921;SDS011;6021;51.182;3.160;2023-04-15T07:54:52;4.67;;;3.80;;
11921;SDS011;6021;51.182;3.160;2023-04-15T07:57:21;7.17;;;5.50;;
11921;SDS011;6021;51.182;3.160;2023-04-15T07:59:49;6.20;;;5.50;;
11921;SDS011;6021;51.182;3.160;2023-04-15T08:02:18;8.43;;;7.17;;
11921;SDS011;6021;51.182;3.160;2023-04-15T08:04:46;7.80;;;6.37;;
11921;SDS011;6021;51.182;3.160;2023-04-15T08:07:15;9.83;;;8.77;;
11921;SDS011;6021;51.182;3.160;2023-04-15T08:09:43;13.23;;;11.90;;
11921;SDS011;6021;51.182;3.160;2023-04-15T08:12:12;14.40;;;12.37;;
11921;SDS011;6021;51.182;3.160;2023-04-15T08:14:41;16.23;;;14.53;;
11921;SDS011;6021;51.182;3.160;2023-04-15T08:17:10;15.07;;;13.57;;
11921;SDS011;6021;51.182;3.160;2023-04-15T08:19:38;16.90;;;15.17;;
11921;SDS011;6021;51.182;3.160;2023-04-15T08:22:07;16.53;;;14.93;;
11921;SDS011;6021;51.182;3.160;2023-04-15T08:24:37;17.47;;;15.63;;
11921;SDS011;6021;51.182;3.160;2023-04-15T08:27:06;18.23;;;16.20;;
11921;SDS011;6021;51.182;3.160;2023-04-15T08:29:34;17.47;;;15.67;;
11921;SDS011;6021;51.182;3.160;2023-04-15T08:32:03;16.77;;;15.07;;
11921;SDS011;6021;51.182;3.160;2023-04-15T08:34:34;19.23;;;15.53;;
11921;SDS011;6021;51.182;3.160;2023-04-15T08:37:04;15.33;;;13.73;;
11921;SDS011;6021;51.182;3.160;2023-04-15T08:39:32;15.73;;;14.13;;
11921;SDS011;6021;51.182;3.160;2023-04-15T08:42:01;15.17;;;13.63;;
11921;SDS011;6021;51.182;3.160;2023-04-15T08:44:33;15.23;;;13.67;;
11921;SDS011;6021;51.182;3.160;2023-04-15T08:47:07;17.27;;;14.10;;
11921;SDS011;6021;51.182;3.160;2023-04-15T08:49:38;16.30;;;14.70;;
11921;SDS011;6021;51.182;3.160;2023-04-15T08:52:10;13.77;;;12.40;;
11921;SDS011;6021;51.182;3.160;2023-04-15T08:54:39;14.80;;;13.33;;
11921;SDS011;6021;51.182;3.160;2023-04-15T08:57:08;14.27;;;12.13;;
11921;SDS011;6021;51.182;3.160;2023-04-15T08:59:37;12.07;;;10.87;;
11921;SDS011;6021;51.182;3.160;2023-04-15T09:02:05;13.70;;;12.07;;
11921;SDS011;6021;51.182;3.160;2023-04-15T09:04:34;14.17;;;12.10;;
11921;SDS011;6021;51.182;3.160;2023-04-15T09:07:04;14.10;;;12.03;;
11921;SDS011;6021;51.182;3.160;2023-04-15T09:09:33;11.83;;;10.73;;
11921;SDS011;6021;51.182;3.160;2023-04-15T09:12:03;12.50;;;11.13;;
11921;SDS011;6021;51.182;3.160;2023-04-15T09:14:31;11.93;;;10.23;;
11921;SDS011;6021;51.182;3.160;2023-04-15T09:17:01;10.77;;;9.43;;
11921;SDS011;6021;51.182;3.160;2023-04-15T09:19:30;12.23;;;9.60;;
11921;SDS011;6021;51.182;3.160;2023-04-15T09:22:02;10.47;;;8.50;;
11921;SDS011;6021;51.182;3.160;2023-04-15T09:24:35;11.20;;;8.80;;
11921;SDS011;6021;51.182;3.160;2023-04-15T09:27:05;14.13;;;10.00;;
11921;SDS011;6021;51.182;3.160;2023-04-15T09:29:34;14.20;;;9.80;;
11921;SDS011;6021;51.182;3.160;2023-04-15T09:32:09;12.33;;;9.30;;
11921;SDS011;6021;51.182;3.160;2023-04-15T09:34:38;10.87;;;9.47;;
11921;SDS011;6021;51.182;3.160;2023-04-15T09:37:07;10.67;;;9.57;;
11921;SDS011;6021;51.182;3.160;2023-04-15T09:42:25;11.60;;;10.40;;
11921;SDS011;6021;51.182;3.160;2023-04-15T09:44:54;13.17;;;10.47;;
11921;SDS011;6021;51.182;3.160;2023-04-15T09:47:28;12.93;;;10.57;;
11921;SDS011;6021;51.182;3.160;2023-04-15T09:49:57;11.60;;;10.30;;
11921;SDS011;6021;51.182;3.160;2023-04-15T09:52:39;11.30;;;9.97;;
11921;SDS011;6021;51.182;3.160;2023-04-15T09:55:06;14.73;;;10.30;;
11921;SDS011;6021;51.182;3.160;2023-04-15T09:57:35;13.47;;;10.07;;
11921;SDS011;6021;51.182;3.160;2023-04-15T10:00:05;14.90;;;10.97;;
11921;SDS011;6021;51.182;3.160;2023-04-15T10:02:37;12.03;;;10.23;;
11921;SDS011;6021;51.182;3.160;2023-04-15T10:05:13;12.73;;;10.50;;
11921;SDS011;6021;51.182;3.160;2023-04-15T10:07:44;12.97;;;10.07;;
11921;SDS011;6021;51.182;3.160;2023-04-15T10:10:13;12.03;;;9.80;;
11921;SDS011;6021;51.182;3.160;2023-04-15T10:12:43;10.90;;;9.23;;
11921;SDS011;6021;51.182;3.160;2023-04-15T10:15:27;11.43;;;9.77;;
11921;SDS011;6021;51.182;3.160;2023-04-15T10:17:43;12.90;;;9.63;;
11921;SDS011;6021;51.182;3.160;2023-04-15T10:20:18;10.67;;;8.53;;
11921;SDS011;6021;51.182;3.160;2023-04-15T10:22:47;9.17;;;8.23;;
11921;SDS011;6021;51.182;3.160;2023-04-15T10:25:16;11.10;;;8.93;;
11921;SDS011;6021;51.182;3.160;2023-04-15T10:27:47;13.63;;;9.80;;
11921;SDS011;6021;51.182;3.160;2023-04-15T10:30:18;13.27;;;9.60;;
11921;SDS011;6021;51.182;3.160;2023-04-15T10:32:47;10.27;;;8.67;;
11921;SDS011;6021;51.182;3.160;2023-04-15T10:35:16;10.93;;;9.10;;
11921;SDS011;6021;51.182;3.160;2023-04-15T10:37:47;11.57;;;9.23;;
11921;SDS011;6021;51.182;3.160;2023-04-15T10:40:28;10.20;;;9.07;;
11921;SDS011;6021;51.182;3.160;2023-04-15T10:42:58;11.97;;;8.53;;
11921;SDS011;6021;51.182;3.160;2023-04-15T10:45:31;12.80;;;8.13;;
11921;SDS011;6021;51.182;3.160;2023-04-15T10:48:05;9.60;;;8.60;;
11921;SDS011;6021;51.182;3.160;2023-04-15T10:50:34;10.50;;;8.47;;
11921;SDS011;6021;51.182;3.160;2023-04-15T10:53:04;11.13;;;8.37;;
11921;SDS011;6021;51.182;3.160;2023-04-15T10:55:34;9.57;;;8.33;;
11921;SDS011;6021;51.182;3.160;2023-04-15T10:58:03;8.80;;;7.97;;
11921;SDS011;6021;51.182;3.160;2023-04-15T11:00:31;9.87;;;8.20;;
11921;SDS011;6021;51.182;3.160;2023-04-15T11:06:08;9.37;;;8.17;;
11921;SDS011;6021;51.182;3.160;2023-04-15T11:08:57;9.17;;;8.37;;
11921;SDS011;6021;51.182;3.160;2023-04-15T11:14:38;10.20;;;9.07;;
11921;SDS011;6021;51.182;3.160;2023-04-15T11:17:09;9.37;;;8.47;;
11921;SDS011;6021;51.182;3.160;2023-04-15T11:19:40;10.50;;;9.50;;
11921;SDS011;6021;51.182;3.160;2023-04-15T11:22:13;10.17;;;9.20;;
11921;SDS011;6021;51.182;3.160;2023-04-15T11:24:47;10.00;;;9.00;;
11921;SDS011;6021;51.182;3.160;2023-04-15T11:27:20;11.47;;;10.13;;
11921;SDS011;6021;51.182;3.160;2023-04-15T11:29:52;13.70;;;10.37;;
11921;SDS011;6021;51.182;3.160;2023-04-15T11:32:20;10.80;;;8.97;;
11921;SDS011;6021;51.182;3.160;2023-04-15T11:34:50;11.50;;;9.37;;
11921;SDS011;6021;51.182;3.160;2023-04-15T11:37:26;11.93;;;9.13;;
11921;SDS011;6021;51.182;3.160;2023-04-15T11:39:51;10.63;;;8.87;;
11921;SDS011;6021;51.182;3.160;2023-04-15T11:42:19;10.80;;;9.70;;
11921;SDS011;6021;51.182;3.160;2023-04-15T11:44:48;10.37;;;9.40;;
11921;SDS011;6021;51.182;3.160;2023-04-15T11:47:23;13.70;;;10.60;;
11921;SDS011;6021;51.182;3.160;2023-04-15T11:49:55;10.57;;;9.47;;
11921;SDS011;6021;51.182;3.160;2023-04-15T11:52:29;11.83;;;10.63;;
11921;SDS011;6021;51.182;3.160;2023-04-15T11:55:01;11.60;;;10.40;;
11921;SDS011;6021;51.182;3.160;2023-04-15T11:57:36;11.17;;;9.57;;
11921;SDS011;6021;51.182;3.160;2023-04-15T11:59:59;12.80;;;11.40;;
11921;SDS011;6021;51.182;3.160;2023-04-15T12:02:30;10.93;;;9.83;;
11921;SDS011;6021;51.182;3.160;2023-04-15T12:05:07;10.60;;;9.50;;
11921;SDS011;6021;51.182;3.160;2023-04-15T12:07:58;11.40;;;10.30;;
11921;SDS011;6021;51.182;3.160;2023-04-15T12:10:30;11.70;;;10.50;;
11921;SDS011;6021;51.182;3.160;2023-04-15T12:13:05;12.23;;;10.73;;
11921;SDS011;6021;51.182;3.160;2023-04-15T12:15:38;11.50;;;9.60;;
11921;SDS011;6021;51.182;3.160;2023-04-15T12:18:15;12.07;;;10.57;;
11921;SDS011;6021;51.182;3.160;2023-04-15T12:20:50;10.83;;;9.53;;
11921;SDS011;6021;51.182;3.160;2023-04-15T12:23:18;11.37;;;9.50;;
11921;SDS011;6021;51.182;3.160;2023-04-15T12:25:51;10.13;;;9.13;;
11921;SDS011;6021;51.182;3.160;2023-04-15T12:28:19;10.83;;;9.50;;
11921;SDS011;6021;51.182;3.160;2023-04-15T12:30:53;10.17;;;9.10;;
11921;SDS011;6021;51.182;3.160;2023-04-15T12:33:22;10.17;;;9.27;;
11921;SDS011;6021;51.182;3.160;2023-04-15T12:35:52;13.37;;;10.20;;
11921;SDS011;6021;51.182;3.160;2023-04-15T12:38:21;10.93;;;9.80;;
11921;SDS011;6021;51.182;3.160;2023-04-15T12:40:52;12.10;;;10.40;;
11921;SDS011;6021;51.182;3.160;2023-04-15T12:43:21;12.57;;;10.27;;
11921;SDS011;6021;51.182;3.160;2023-04-15T12:45:54;11.57;;;10.37;;
11921;SDS011;6021;51.182;3.160;2023-04-15T12:48:22;11.60;;;10.40;;
11921;SDS011;6021;51.182;3.160;2023-04-15T12:50:50;11.60;;;9.97;;
11921;SDS011;6021;51.182;3.160;2023-04-15T12:53:34;12.40;;;11.10;;
11921;SDS011;6021;51.182;3.160;2023-04-15T12:55:57;11.93;;;10.40;;
11921;SDS011;6021;51.182;3.160;2023-04-15T12:58:26;12.10;;;10.03;;
11921;SDS011;6021;51.182;3.160;2023-04-15T13:01:00;14.53;;;10.87;;
11921;SDS011;6021;51.182;3.160;2023-04-15T13:03:24;13.30;;;10.27;;
11921;SDS011;6021;51.182;3.160;2023-04-15T13:05:52;13.63;;;10.67;;
11921;SDS011;6021;51.182;3.160;2023-04-15T13:08:21;13.70;;;10.90;;
11921;SDS011;6021;51.182;3.160;2023-04-15T13:10:49;10.57;;;9.30;;
11921;SDS011;6021;51.182;3.160;2023-04-15T13:13:19;11.60;;;9.87;;
11921;SDS011;6021;51.182;3.160;2023-04-15T13:16:18;12.07;;;9.37;;
11921;SDS011;6021;51.182;3.160;2023-04-15T13:18:47;12.63;;;9.70;;
11921;SDS011;6021;51.182;3.160;2023-04-15T13:21:25;13.83;;;9.77;;
11921;SDS011;6021;51.182;3.160;2023-04-15T13:24:10;13.10;;;9.57;;
11921;SDS011;6021;51.182;3.160;2023-04-15T13:26:53;11.63;;;9.33;;
11921;SDS011;6021;51.182;3.160;2023-04-15T13:29:30;12.07;;;8.77;;
11921;SDS011;6021;51.182;3.160;2023-04-15T13:32:13;10.70;;;8.07;;
11921;SDS011;6021;51.182;3.160;2023-04-15T13:34:41;12.50;;;8.40;;
11921;SDS011;6021;51.182;3.160;2023-04-15T13:37:21;9.23;;;8.23;;
11921;SDS011;6021;51.182;3.160;2023-04-15T13:40:09;10.80;;;7.97;;
11921;SDS011;6021;51.182;3.160;2023-04-15T13:42:40;9.27;;;7.77;;
11921;SDS011;6021;51.182;3.160;2023-04-15T13:47:50;9.17;;;7.10;;
11921;SDS011;6021;51.182;3.160;2023-04-15T13:50:24;10.23;;;6.63;;
11921;SDS011;6021;51.182;3.160;2023-04-15T13:53:04;10.43;;;6.63;;
11921;SDS011;6021;51.182;3.160;2023-04-15T13:55:32;10.33;;;6.53;;
11921;SDS011;6021;51.182;3.160;2023-04-15T13:58:01;10.10;;;6.30;;
11921;SDS011;6021;51.182;3.160;2023-04-15T14:00:31;8.60;;;5.87;;
11921;SDS011;6021;51.182;3.160;2023-04-15T14:03:01;8.77;;;5.97;;
11921;SDS011;6021;51.182;3.160;2023-04-15T14:05:47;8.33;;;5.93;;
11921;SDS011;6021;51.182;3.160;2023-04-15T14:08:18;7.50;;;5.60;;
11921;SDS011;6021;51.182;3.160;2023-04-15T14:10:48;7.67;;;5.87;;
11921;SDS011;6021;51.182;3.160;2023-04-15T14:13:19;9.90;;;6.50;;
11921;SDS011;6021;51.182;3.160;2023-04-15T14:15:58;11.17;;;6.03;;
11921;SDS011;6021;51.182;3.160;2023-04-15T14:18:37;7.57;;;5.50;;
11921;SDS011;6021;51.182;3.160;2023-04-15T14:24:05;6.93;;;5.10;;
11921;SDS011;6021;51.182;3.160;2023-04-15T14:26:34;7.37;;;4.80;;
11921;SDS011;6021;51.182;3.160;2023-04-15T14:29:02;6.93;;;4.77;;
11921;SDS011;6021;51.182;3.160;2023-04-15T14:31:31;6.27;;;4.03;;
11921;SDS011;6021;51.182;3.160;2023-04-15T14:34:00;6.80;;;3.80;;
11921;SDS011;6021;51.182;3.160;2023-04-15T14:36:28;5.77;;;3.80;;
11921;SDS011;6021;51.182;3.160;2023-04-15T14:38:57;6.40;;;3.97;;
11921;SDS011;6021;51.182;3.160;2023-04-15T14:41:35;8.03;;;3.73;;
11921;SDS011;6021;51.182;3.160;2023-04-15T14:44:04;6.60;;;3.50;;
11921;SDS011;6021;51.182;3.160;2023-04-15T14:46:34;4.07;;;3.67;;
11921;SDS011;6021;51.182;3.160;2023-04-15T14:49:07;6.73;;;3.70;;
11921;SDS011;6021;51.182;3.160;2023-04-15T14:51:46;7.20;;;3.97;;
11921;SDS011;6021;51.182;3.160;2023-04-15T14:54:15;6.00;;;4.17;;
11921;SDS011;6021;51.182;3.160;2023-04-15T14:56:43;6.73;;;3.83;;
11921;SDS011;6021;51.182;3.160;2023-04-15T15:02:01;8.13;;;4.27;;
11921;SDS011;6021;51.182;3.160;2023-04-15T15:04:33;5.20;;;3.90;;
11921;SDS011;6021;51.182;3.160;2023-04-15T15:07:17;7.13;;;3.70;;
11921;SDS011;6021;51.182;3.160;2023-04-15T15:09:47;5.97;;;3.80;;
11921;SDS011;6021;51.182;3.160;2023-04-15T15:12:15;6.93;;;3.63;;
11921;SDS011;6021;51.182;3.160;2023-04-15T15:14:49;6.53;;;3.50;;
11921;SDS011;6021;51.182;3.160;2023-04-15T15:17:20;6.30;;;3.90;;
11921;SDS011;6021;51.182;3.160;2023-04-15T15:19:49;4.90;;;3.40;;
11921;SDS011;6021;51.182;3.160;2023-04-15T15:22:20;8.67;;;3.80;;
11921;SDS011;6021;51.182;3.160;2023-04-15T15:24:49;6.40;;;3.60;;
11921;SDS011;6021;51.182;3.160;2023-04-15T15:27:24;7.63;;;3.17;;